Time;durP1;ratioP1;P1;durP2;ratioP2;P2;SDS_P1;SDS_P2;PMS_P1;PMS_P2;Temp;Humidity;BMP_temperature;BMP_pressure;BME280_temperature;BME280_humidity;BME280_pressure;Samples;Min_cycle;Max_cycle;Signal;HPM_P1;HPM_P2
2023/12/17 00:02:03;;;;;;;5.70;4.70;;;-0.30;99.90;;;;;;5034151;28;20036;-32
2023/12/17 00:04:28;;;;;;;4.75;4.25;;;-0.30;99.90;;;;;;5045560;28;20052;-34
2023/12/17 00:06:54;;;;;;;6.13;4.50;;;-0.30;99.90;;;;;;5044423;28;20040;-32
2023/12/17 00:09:19;;;;;;;6.72;4.88;;;-0.30;99.90;;;;;;5046473;28;20018;-34
2023/12/17 00:11:45;;;;;;;5.03;4.50;;;-0.40;99.90;;;;;;5044095;28;20071;-35
2023/12/17 00:14:14;;;;;;;6.10;4.45;;;-0.30;99.90;;;;;;5042111;28;20150;-33
2023/12/17 00:16:40;;;;;;;8.68;5.45;;;-0.30;99.90;;;;;;5046323;28;20071;-32
2023/12/17 00:19:05;;;;;;;6.20;4.30;;;-0.30;99.90;;;;;;5045075;28;20029;-31
2023/12/17 00:21:32;;;;;;;6.97;5.22;;;-0.40;99.90;;;;;;5044444;28;20060;-37
2023/12/17 00:23:57;;;;;;;7.30;5.22;;;-0.30;99.90;;;;;;5046688;28;20108;-32
2023/12/17 00:26:23;;;;;;;7.05;4.88;;;-0.30;99.90;;;;;;5045910;28;20166;-34
2023/12/17 00:28:49;;;;;;;8.23;5.22;;;-0.30;99.90;;;;;;5047268;28;20028;-34
2023/12/17 00:31:14;;;;;;;5.28;3.97;;;-0.30;99.90;;;;;;5041955;28;20037;-32
2023/12/17 00:33:40;;;;;;;7.28;5.30;;;-0.50;99.90;;;;;;5048979;28;20138;-34
2023/12/17 00:36:06;;;;;;;7.10;5.20;;;-0.60;99.90;;;;;;5047615;28;20025;-32
2023/12/17 00:38:31;;;;;;;7.38;4.53;;;-0.60;99.90;;;;;;5052256;28;20040;-34
2023/12/17 00:40:57;;;;;;;7.30;4.00;;;-0.50;99.90;;;;;;5045548;28;20048;-32
2023/12/17 00:43:22;;;;;;;5.43;4.55;;;-0.50;99.90;;;;;;5045877;28;20044;-32
2023/12/17 00:45:48;;;;;;;5.03;4.47;;;-0.50;99.90;;;;;;5050473;28;20037;-32
2023/12/17 00:48:13;;;;;;;5.82;4.88;;;-0.50;99.90;;;;;;5041115;28;20032;-34
2023/12/17 00:50:39;;;;;;;5.38;4.43;;;-0.40;99.90;;;;;;5046635;28;20029;-32
2023/12/17 00:53:04;;;;;;;5.93;4.97;;;-0.50;99.90;;;;;;5044906;28;20130;-33
2023/12/17 00:55:30;;;;;;;5.50;4.53;;;-0.50;99.90;;;;;;5043693;28;20037;-31
2023/12/17 00:57:56;;;;;;;6.35;4.05;;;-0.50;99.90;;;;;;5041828;28;20070;-33
2023/12/17 01:00:22;;;;;;;5.45;4.63;;;-0.40;99.90;;;;;;5043062;28;20029;-32
2023/12/17 01:02:47;;;;;;;6.50;4.22;;;-0.50;99.90;;;;;;5044709;28;20036;-36
2023/12/17 01:05:13;;;;;;;5.90;4.70;;;-0.50;99.90;;;;;;5044985;28;20057;-32
2023/12/17 01:07:39;;;;;;;6.95;5.03;;;-0.60;99.90;;;;;;5041173;28;20071;-34
2023/12/17 01:10:05;;;;;;;7.18;4.35;;;-0.60;99.90;;;;;;5041195;28;20030;-32
2023/12/17 01:12:30;;;;;;;6.45;4.32;;;-0.70;99.90;;;;;;5044625;28;20408;-35
2023/12/17 01:14:56;;;;;;;7.65;3.80;;;-0.70;99.90;;;;;;5040836;28;20026;-33
2023/12/17 01:17:21;;;;;;;5.90;4.35;;;-0.80;99.90;;;;;;5043837;28;20099;-33
2023/12/17 01:19:47;;;;;;;7.10;5.30;;;-0.80;99.90;;;;;;5044975;28;20078;-32
2023/12/17 01:22:12;;;;;;;6.68;5.03;;;-0.80;99.90;;;;;;5043749;28;20837;-32
2023/12/17 01:24:39;;;;;;;8.27;5.15;;;-0.70;99.90;;;;;;5044327;28;20036;-32
2023/12/17 01:27:05;;;;;;;9.25;6.00;;;-0.80;99.90;;;;;;5043925;28;20719;-33
2023/12/17 01:29:30;;;;;;;5.70;4.75;;;-0.80;99.90;;;;;;5040891;28;20059;-37
2023/12/17 01:31:57;;;;;;;6.20;5.45;;;-0.70;99.90;;;;;;5040518;28;20025;-32
2023/12/17 01:34:23;;;;;;;6.07;5.35;;;-0.70;99.90;;;;;;5044176;28;20035;-32
2023/12/17 01:36:49;;;;;;;8.48;4.38;;;-0.60;99.90;;;;;;5044338;28;20032;-36
2023/12/17 01:39:16;;;;;;;6.03;4.50;;;-0.60;99.90;;;;;;5045195;28;20563;-39
2023/12/17 01:41:42;;;;;;;8.02;5.15;;;-0.60;99.90;;;;;;5042318;28;20037;-36
2023/12/17 01:44:07;;;;;;;6.82;5.53;;;-0.60;99.90;;;;;;5043666;28;20037;-40
2023/12/17 01:46:33;;;;;;;6.47;4.28;;;-0.60;99.90;;;;;;5045765;28;20025;-39
2023/12/17 01:48:59;;;;;;;5.05;4.55;;;-0.70;99.90;;;;;;5045125;28;20519;-40
2023/12/17 01:51:26;;;;;;;8.80;5.13;;;-0.80;99.90;;;;;;5046012;28;20029;-39
2023/12/17 01:53:52;;;;;;;6.35;4.97;;;-0.70;99.90;;;;;;5042797;28;20292;-39
2023/12/17 01:56:18;;;;;;;7.25;5.10;;;-0.70;99.90;;;;;;5046452;28;20545;-39
2023/12/17 01:58:44;;;;;;;4.70;4.35;;;-0.80;99.90;;;;;;5043030;28;20480;-35
2023/12/17 02:01:10;;;;;;;5.10;4.30;;;-0.80;99.90;;;;;;5043999;28;20508;-40
2023/12/17 02:03:39;;;;;;;7.55;5.43;;;-0.80;99.90;;;;;;5037943;28;20049;-39
2023/12/17 02:06:07;;;;;;;5.88;3.88;;;-0.80;99.90;;;;;;5045063;28;20017;-39
2023/12/17 02:08:33;;;;;;;;;;;-0.90;99.90;;;;;;5044116;28;20033;-37
2023/12/17 02:10:58;;;;;;;3.75;3.42;;;-0.90;99.90;;;;;;5042119;28;19917;-38
2023/12/17 02:13:24;;;;;;;17.25;10.18;;;-0.80;99.90;;;;;;5044598;28;20028;-39
2023/12/17 02:15:49;;;;;;;38.90;18.23;;;-0.80;99.90;;;;;;5043699;28;20404;-39
2023/12/17 02:18:15;;;;;;;38.17;18.30;;;-0.80;99.90;;;;;;5043220;28;20044;-40
2023/12/17 02:20:43;;;;;;;13.50;8.63;;;-0.70;99.90;;;;;;5044626;28;20036;-40
2023/12/17 02:23:09;;;;;;;4.80;3.95;;;-0.80;99.90;;;;;;5044525;28;20065;-40
2023/12/17 02:25:35;;;;;;;5.40;4.55;;;-0.90;99.90;;;;;;5043589;28;20523;-39
2023/12/17 02:28:00;;;;;;;6.20;5.10;;;-1.00;99.90;;;;;;5045074;28;20476;-40
2023/12/17 02:30:26;;;;;;;4.80;3.90;;;-1.00;99.90;;;;;;5043108;28;20494;-39
2023/12/17 02:32:52;;;;;;;5.40;3.97;;;-1.00;99.90;;;;;;5042250;28;20060;-38
2023/12/17 02:35:17;;;;;;;5.30;4.38;;;-1.00;99.90;;;;;;5041445;28;20021;-39
2023/12/17 02:37:43;;;;;;;5.10;4.60;;;-1.00;99.90;;;;;;5043779;28;20120;-34
2023/12/17 02:40:09;;;;;;;6.68;3.78;;;-1.10;99.90;;;;;;5046040;28;20079;-40
2023/12/17 02:42:35;;;;;;;6.78;4.03;;;-1.10;99.90;;;;;;5042066;28;20040;-39
2023/12/17 02:45:00;;;;;;;6.80;4.82;;;-1.10;99.90;;;;;;5044953;28;20025;-40
2023/12/17 02:47:26;;;;;;;6.68;3.70;;;-1.20;99.90;;;;;;5042581;28;20108;-40
2023/12/17 02:49:51;;;;;;;6.60;4.60;;;-1.20;99.90;;;;;;5045364;28;20561;-41
2023/12/17 02:52:18;;;;;;;7.15;5.60;;;-1.10;99.90;;;;;;5045346;28;20075;-40
2023/12/17 02:54:44;;;;;;;3.63;3.33;;;-1.00;99.90;;;;;;5044117;28;20032;-38
2023/12/17 02:57:09;;;;;;;4.22;3.83;;;-1.10;99.90;;;;;;5045411;28;20040;-42
2023/12/17 02:59:35;;;;;;;6.30;4.35;;;-1.20;99.90;;;;;;5047946;28;20108;-40
2023/12/17 03:02:01;;;;;;;4.75;3.45;;;-1.10;99.90;;;;;;5046932;28;20478;-41
2023/12/17 03:04:26;;;;;;;5.32;4.82;;;-1.20;99.90;;;;;;5045547;28;20045;-39
2023/12/17 03:06:52;;;;;;;4.88;4.03;;;-1.20;99.90;;;;;;5046396;28;20116;-40
2023/12/17 03:09:18;;;;;;;6.15;4.32;;;-1.20;99.90;;;;;;5048258;28;20060;-39
2023/12/17 03:11:45;;;;;;;8.52;5.03;;;-1.20;99.90;;;;;;5047341;28;20053;-35
2023/12/17 03:14:11;;;;;;;6.03;4.38;;;-1.20;99.90;;;;;;5046789;28;20033;-43
2023/12/17 03:16:36;;;;;;;5.55;4.97;;;-1.20;99.90;;;;;;5046012;28;20082;-41
2023/12/17 03:19:02;;;;;;;8.35;5.00;;;-1.20;99.90;;;;;;5048814;28;20057;-39
2023/12/17 03:21:28;;;;;;;8.90;5.28;;;-1.20;99.90;;;;;;5048133;28;20082;-40
2023/12/17 03:23:54;;;;;;;5.00;4.28;;;-1.10;99.90;;;;;;5046054;28;20048;-40
2023/12/17 03:26:20;;;;;;;6.30;4.00;;;-1.10;99.90;;;;;;5044521;28;20419;-41
2023/12/17 03:28:46;;;;;;;8.52;3.95;;;-1.10;99.90;;;;;;5046209;28;20032;-40
2023/12/17 03:31:13;;;;;;;6.25;4.60;;;-1.10;99.90;;;;;;5039209;28;20490;-37
2023/12/17 03:33:42;;;;;;;6.17;4.30;;;-1.10;99.90;;;;;;5027288;28;20060;-43
2023/12/17 03:36:11;;;;;;;4.30;3.83;;;-1.10;99.90;;;;;;5024018;28;20166;-38
2023/12/17 03:38:37;;;;;;;;;;;-1.10;99.90;;;;;;5026088;28;20508;-40
2023/12/17 03:41:02;;;;;;;2.88;2.65;;;-1.20;99.90;;;;;;5027463;28;19913;-41
2023/12/17 03:43:28;;;;;;;4.07;3.78;;;-1.20;99.90;;;;;;5022125;28;20448;-39
2023/12/17 03:45:54;;;;;;;4.45;3.90;;;-1.20;99.90;;;;;;5022358;28;20030;-43
2023/12/17 03:48:19;;;;;;;4.38;3.55;;;-1.30;99.90;;;;;;5026745;28;20033;-32
2023/12/17 03:50:45;;;;;;;5.85;4.55;;;-1.30;99.90;;;;;;5025988;28;20021;-35
2023/12/17 03:53:11;;;;;;;5.93;3.95;;;-1.30;99.90;;;;;;5029181;28;20034;-33
2023/12/17 03:55:37;;;;;;;3.88;3.40;;;-1.20;99.90;;;;;;5025964;28;20033;-38
2023/12/17 03:58:04;;;;;;;5.43;3.88;;;-1.20;99.90;;;;;;5026564;28;20029;-32
2023/12/17 04:00:29;;;;;;;6.95;4.22;;;-1.20;99.90;;;;;;5026342;28;20022;-36
2023/12/17 04:02:55;;;;;;;3.70;3.40;;;-1.20;99.90;;;;;;5044578;28;20402;-43
2023/12/17 04:05:21;;;;;;;4.00;3.70;;;-1.20;99.90;;;;;;5042361;28;21642;-36
2023/12/17 04:07:46;;;;;;;6.65;4.13;;;-1.30;99.90;;;;;;5045953;28;20036;-40
2023/12/17 04:10:12;;;;;;;4.60;4.20;;;-1.30;99.90;;;;;;5047610;28;20064;-34
2023/12/17 04:12:37;;;;;;;5.25;4.05;;;-1.30;99.90;;;;;;5047854;28;20021;-41
2023/12/17 04:15:03;;;;;;;5.43;4.53;;;-1.30;99.90;;;;;;5045274;28;20029;-41
2023/12/17 04:17:30;;;;;;;5.30;3.95;;;-1.30;99.90;;;;;;5047435;28;20024;-33
2023/12/17 04:19:56;;;;;;;4.63;3.78;;;-1.40;99.90;;;;;;5045886;28;20033;-40
2023/12/17 04:22:21;;;;;;;4.82;4.28;;;-1.40;99.90;;;;;;5045158;28;20507;-41
2023/12/17 04:24:47;;;;;;;6.22;4.43;;;-1.40;99.90;;;;;;5046460;28;20021;-38
2023/12/17 04:27:12;;;;;;;4.30;3.90;;;-1.40;99.90;;;;;;5045363;28;20078;-40
2023/12/17 04:29:38;;;;;;;4.15;3.80;;;-1.40;99.90;;;;;;5047171;28;20425;-42
2023/12/17 04:32:04;;;;;;;4.55;3.22;;;-1.40;99.90;;;;;;5046307;28;20167;-43
2023/12/17 04:34:30;;;;;;;9.05;3.80;;;-1.50;99.90;;;;;;5042906;28;20481;-36
2023/12/17 04:36:59;;;;;;;10.75;4.60;;;-1.50;99.90;;;;;;5046422;28;20064;-42
2023/12/17 04:39:25;;;;;;;5.88;4.28;;;-1.50;99.90;;;;;;5046629;28;20023;-36
2023/12/17 04:41:51;;;;;;;6.20;3.78;;;-1.50;99.90;;;;;;5043421;28;20029;-40
2023/12/17 04:44:16;;;;;;;2.85;2.63;;;-1.40;99.90;;;;;;5045203;28;20594;-40
2023/12/17 04:46:42;;;;;;;4.10;3.78;;;-1.40;99.90;;;;;;5046695;28;20658;-32
2023/12/17 04:49:08;;;;;;;3.63;3.13;;;-1.40;99.90;;;;;;5043557;28;20032;-39
2023/12/17 04:51:33;;;;;;;3.30;2.08;;;-1.40;99.90;;;;;;5044489;28;20071;-41
2023/12/17 04:53:59;;;;;;;4.38;3.67;;;-1.50;99.90;;;;;;5046350;28;20017;-42
2023/12/17 04:56:25;;;;;;;5.97;4.00;;;-1.50;99.90;;;;;;5040732;28;20029;-40
2023/12/17 04:58:51;;;;;;;5.32;3.95;;;-1.70;99.90;;;;;;5038177;28;20129;-30
2023/12/17 05:01:16;;;;;;;4.18;3.33;;;-1.70;99.90;;;;;;5062658;28;20040;-30
2023/12/17 05:03:42;;;;;;;5.25;3.33;;;-1.70;99.90;;;;;;5044085;28;20098;-30
2023/12/17 05:06:08;;;;;;;4.53;4.10;;;-1.60;99.90;;;;;;5048186;28;20391;-31
2023/12/17 05:08:34;;;;;;;5.72;3.38;;;-1.70;99.90;;;;;;5043646;28;20033;-38
2023/12/17 05:10:59;;;;;;;3.85;3.45;;;-1.60;99.90;;;;;;5045532;28;20037;-42
2023/12/17 05:13:25;;;;;;;3.78;3.47;;;-1.60;99.90;;;;;;5044895;28;20032;-41
2023/12/17 05:15:51;;;;;;;3.90;3.42;;;-1.50;99.90;;;;;;5043758;28;20136;-41
2023/12/17 05:18:16;;;;;;;5.00;4.47;;;-1.50;99.90;;;;;;5043951;28;20078;-42
2023/12/17 05:20:42;;;;;;;4.50;4.10;;;-1.60;99.90;;;;;;5045581;28;20052;-40
2023/12/17 05:23:10;;;;;;;4.47;3.28;;;-1.60;99.90;;;;;;5042806;28;20031;-41
2023/12/17 05:25:36;;;;;;;5.90;3.67;;;-1.60;99.90;;;;;;5045304;28;20098;-40
2023/12/17 05:28:01;;;;;;;4.68;3.17;;;-1.50;99.90;;;;;;5043071;28;20104;-42
2023/12/17 05:30:27;;;;;;;5.70;3.70;;;-1.50;99.90;;;;;;5045576;28;20028;-43
2023/12/17 05:32:53;;;;;;;3.03;2.80;;;-1.50;99.90;;;;;;5048826;28;20452;-40
2023/12/17 05:35:18;;;;;;;3.92;3.38;;;-1.50;99.90;;;;;;5043364;28;20099;-38
2023/12/17 05:37:44;;;;;;;4.70;3.42;;;-1.60;99.90;;;;;;5041946;28;20032;-35
2023/12/17 05:40:10;;;;;;;5.47;3.78;;;-1.70;99.90;;;;;;5045441;28;20111;-43
2023/12/17 05:42:36;;;;;;;6.32;4.30;;;-1.80;99.90;;;;;;5040889;28;20034;-40
2023/12/17 05:45:02;;;;;;;5.78;4.60;;;-1.90;99.90;;;;;;5042703;28;20033;-41
2023/12/17 05:47:30;;;;;;;4.00;3.72;;;-1.90;99.90;;;;;;5044085;28;20021;-39
2023/12/17 05:49:55;;;;;;;4.53;4.20;;;-1.80;99.90;;;;;;5038140;28;20025;-34
2023/12/17 05:52:21;;;;;;;6.15;4.53;;;-1.80;99.90;;;;;;5045541;28;20037;-42
2023/12/17 05:54:46;;;;;;;6.70;5.00;;;-1.80;99.90;;;;;;5035788;28;20048;-36
2023/12/17 05:57:12;;;;;;;4.82;4.03;;;-2.00;99.90;;;;;;5045393;28;20040;-43
2023/12/17 05:59:38;;;;;;;4.53;3.80;;;-2.00;99.90;;;;;;5047157;28;20033;-41
2023/12/17 06:02:04;;;;;;;3.97;3.63;;;-2.00;99.90;;;;;;5030550;28;20041;-43
2023/12/17 06:04:30;;;;;;;5.38;3.25;;;-2.00;99.90;;;;;;5020329;28;20045;-42
2023/12/17 06:06:55;;;;;;;3.63;3.30;;;-2.00;99.90;;;;;;5022874;28;20021;-42
2023/12/17 06:09:24;;;;;;;5.18;4.13;;;-2.00;99.90;;;;;;5023612;28;20105;-32
2023/12/17 06:11:50;;;;;;;4.35;3.70;;;-1.90;99.90;;;;;;5021635;28;20113;-33
2023/12/17 06:14:19;;;;;;;5.45;3.75;;;-1.80;99.90;;;;;;5021145;28;20133;-33
2023/12/17 06:16:45;;;;;;;3.78;3.50;;;-1.80;99.90;;;;;;5023214;28;20378;-33
2023/12/17 06:19:11;;;;;;;10.43;4.10;;;-1.70;99.90;;;;;;5018900;28;20031;-30
2023/12/17 06:21:37;;;;;;;4.15;3.75;;;-1.80;99.90;;;;;;5020940;28;20022;-32
2023/12/17 06:24:04;;;;;;;5.55;3.72;;;-1.80;99.90;;;;;;5015962;28;20026;-32
2023/12/17 06:26:30;;;;;;;6.20;5.57;;;-1.80;99.90;;;;;;5025193;28;20025;-35
2023/12/17 06:28:56;;;;;;;7.20;4.70;;;-1.80;99.90;;;;;;5028743;28;20029;-32
2023/12/17 06:31:22;;;;;;;4.30;3.90;;;-1.80;99.90;;;;;;5029999;28;20398;-30
2023/12/17 06:33:48;;;;;;;6.13;4.55;;;-2.00;99.90;;;;;;5047292;28;20041;-31
2023/12/17 06:36:14;;;;;;;5.00;4.00;;;-2.00;99.90;;;;;;5048003;28;20396;-30
2023/12/17 06:38:40;;;;;;;5.40;3.47;;;-2.00;99.90;;;;;;5045997;28;20104;-29
2023/12/17 06:41:08;;;;;;;4.50;4.15;;;-2.00;99.90;;;;;;5048587;28;20642;-30
2023/12/17 06:43:33;;;;;;;8.45;4.75;;;-2.00;99.90;;;;;;5048609;28;20032;-34
2023/12/17 06:45:59;;;;;;;6.07;3.95;;;-1.90;99.90;;;;;;5049127;28;20486;-31
2023/12/17 06:48:24;;;;;;;5.43;4.03;;;-1.90;99.90;;;;;;5043985;28;20161;-35
2023/12/17 06:50:50;;;;;;;4.07;3.65;;;-1.80;99.90;;;;;;5048461;28;20480;-33
2023/12/17 06:53:17;;;;;;;5.82;4.45;;;-1.80;99.90;;;;;;5051205;28;20051;-31
2023/12/17 06:55:43;;;;;;;4.25;3.83;;;-1.80;99.90;;;;;;5049989;28;20868;-29
2023/12/17 06:58:09;;;;;;;3.85;3.55;;;-1.70;99.90;;;;;;5048669;28;20021;-29
2023/12/17 07:00:35;;;;;;;5.22;4.72;;;-1.70;99.90;;;;;;5047070;28;20511;-32
2023/12/17 07:03:01;;;;;;;3.97;3.60;;;-1.80;99.90;;;;;;5047994;28;20044;-29
2023/12/17 07:05:27;;;;;;;3.92;3.45;;;-1.80;99.90;;;;;;5047148;28;20124;-30
2023/12/17 07:07:52;;;;;;;6.68;4.15;;;-1.80;99.90;;;;;;5044183;28;20135;-30
2023/12/17 07:10:18;;;;;;;6.95;5.38;;;-1.80;99.90;;;;;;5046643;28;20029;-30
2023/12/17 07:12:44;;;;;;;7.45;4.72;;;-1.80;99.90;;;;;;5048795;28;20100;-36
2023/12/17 07:15:10;;;;;;;4.97;4.45;;;-1.70;99.90;;;;;;5046734;28;20835;-29
2023/12/17 07:17:35;;;;;;;3.90;3.30;;;-1.80;99.90;;;;;;5043551;28;20060;-29
2023/12/17 07:20:01;;;;;;;5.20;4.07;;;-1.70;99.90;;;;;;5048680;28;20048;-31
2023/12/17 07:22:27;;;;;;;5.53;4.50;;;-1.80;99.90;;;;;;5049997;28;20035;-29
2023/12/17 07:24:52;;;;;;;4.82;3.80;;;-1.80;99.90;;;;;;5046183;28;20037;-32
2023/12/17 07:27:18;;;;;;;2.90;2.70;;;-1.80;99.90;;;;;;5043279;28;20032;-32
2023/12/17 07:29:44;;;;;;;5.25;4.03;;;-1.90;99.90;;;;;;5044270;28;20464;-36
2023/12/17 07:32:09;;;;;;;4.97;3.35;;;-1.80;99.90;;;;;;5046182;28;20021;-42
2023/12/17 07:34:35;;;;;;;4.47;3.92;;;-1.80;99.90;;;;;;5046814;28;20106;-40
2023/12/17 07:37:00;;;;;;;3.55;3.10;;;-1.70;99.90;;;;;;5045681;28;20480;-38
2023/12/17 07:39:26;;;;;;;4.20;3.80;;;-1.70;99.90;;;;;;5045280;28;20399;-41
2023/12/17 07:41:52;;;;;;;3.45;3.13;;;-1.80;99.90;;;;;;5045783;28;20044;-39
2023/12/17 07:44:18;;;;;;;4.35;3.50;;;-1.80;99.90;;;;;;5044682;28;20064;-41
2023/12/17 07:46:44;;;;;;;8.95;4.97;;;-1.70;99.90;;;;;;5045801;28;20037;-36
2023/12/17 07:49:10;;;;;;;3.97;3.28;;;-1.70;99.90;;;;;;5046315;28;20036;-40
2023/12/17 07:51:38;;;;;;;8.52;5.13;;;-1.70;99.90;;;;;;5042466;28;20028;-42
2023/12/17 07:54:04;;;;;;;4.93;4.03;;;-1.70;99.90;;;;;;5041278;28;20025;-41
2023/12/17 07:56:31;;;;;;;4.22;3.83;;;-1.70;99.90;;;;;;5044315;28;20112;-34
2023/12/17 07:58:57;;;;;;;4.75;3.42;;;-1.70;99.90;;;;;;5045371;28;20671;-37
2023/12/17 08:01:32;;;;;;;5.00;4.30;;;-1.80;99.90;;;;;;5038440;28;20041;-40
2023/12/17 08:03:58;;;;;;;4.32;3.60;;;-1.80;99.90;;;;;;5050450;28;20048;-40
2023/12/17 08:06:24;;;;;;;12.15;5.05;;;-1.80;99.90;;;;;;5050242;28;20032;-40
2023/12/17 08:08:50;;;;;;;4.22;3.92;;;-1.70;99.90;;;;;;5046799;28;20861;-33
2023/12/17 08:11:16;;;;;;;7.63;5.57;;;-1.70;99.90;;;;;;5047433;28;20021;-40
2023/12/17 08:13:43;;;;;;;6.07;4.53;;;-1.70;99.90;;;;;;5050216;28;20109;-41
2023/12/17 08:16:09;;;;;;;6.97;4.18;;;-1.70;99.90;;;;;;5052415;28;20035;-38
2023/12/17 08:18:34;;;;;;;5.90;4.70;;;-1.60;99.90;;;;;;5045113;28;20021;-41
2023/12/17 08:21:01;;;;;;;7.00;4.95;;;-1.50;99.90;;;;;;5045266;28;20065;-39
2023/12/17 08:23:27;;;;;;;6.60;5.78;;;-1.50;99.90;;;;;;5048410;28;20361;-39
2023/12/17 08:25:53;;;;;;;11.23;5.45;;;-1.50;99.90;;;;;;5046493;28;20040;-41
2023/12/17 08:28:22;;;;;;;6.93;6.20;;;-1.40;99.90;;;;;;5047547;28;20056;-40
2023/12/17 08:30:48;;;;;;;12.43;8.02;;;-1.40;99.90;;;;;;5048420;28;20052;-35
2023/12/17 08:33:14;;;;;;;11.50;7.07;;;-1.30;99.90;;;;;;5045641;28;20029;-39
2023/12/17 08:35:41;;;;;;;9.73;6.93;;;-1.30;99.90;;;;;;5046171;28;20024;-41
2023/12/17 08:38:06;;;;;;;6.50;5.07;;;-1.30;99.90;;;;;;5046568;28;20519;-31
2023/12/17 08:40:33;;;;;;;9.77;6.60;;;-1.20;99.90;;;;;;5047745;28;20031;-40
2023/12/17 08:43:00;;;;;;;9.07;6.38;;;-1.20;99.90;;;;;;5042707;28;20079;-41
2023/12/17 08:45:26;;;;;;;5.57;5.05;;;-1.10;99.90;;;;;;5045461;28;20036;-38
2023/12/17 08:47:54;;;;;;;9.27;6.28;;;-1.00;99.90;;;;;;5046155;28;20029;-39
2023/12/17 08:50:20;;;;;;;4.90;4.47;;;-1.00;99.90;;;;;;5045191;28;20104;-41
2023/12/17 08:52:45;;;;;;;7.35;4.32;;;-0.90;99.90;;;;;;5046399;28;20112;-39
2023/12/17 08:55:11;;;;;;;5.55;4.53;;;-0.80;99.90;;;;;;5046410;28;20032;-41
2023/12/17 08:57:37;;;;;;;8.00;4.30;;;-0.70;99.90;;;;;;5046569;28;20033;-41
2023/12/17 09:00:04;;;;;;;5.03;4.63;;;-0.60;99.90;;;;;;5043541;28;20762;-42
2023/12/17 09:02:31;;;;;;;5.25;4.72;;;-0.60;99.90;;;;;;5035066;28;20120;-38
2023/12/17 09:04:57;;;;;;;9.10;5.28;;;-0.50;99.90;;;;;;5043571;28;20507;-39
2023/12/17 09:07:23;;;;;;;6.30;4.57;;;-0.40;99.90;;;;;;5044728;28;20029;-40
2023/12/17 09:09:49;;;;;;;6.68;6.00;;;-0.40;99.90;;;;;;5044486;28;20045;-42
2023/12/17 09:12:15;;;;;;;6.78;5.00;;;-0.30;99.90;;;;;;5047161;28;20025;-41
2023/12/17 09:14:41;;;;;;;6.30;5.30;;;-0.30;99.90;;;;;;5045983;28;20043;-40
2023/12/17 09:17:07;;;;;;;8.18;4.15;;;-0.20;99.90;;;;;;5046257;28;21674;-41
2023/12/17 09:19:32;;;;;;;5.88;5.20;;;-0.20;99.90;;;;;;5046098;28;20033;-41
2023/12/17 09:21:58;;;;;;;7.40;4.07;;;-0.20;99.90;;;;;;5046599;28;20104;-42
2023/12/17 09:24:24;;;;;;;7.43;5.10;;;-0.10;99.90;;;;;;5045667;28;20403;-39
2023/12/17 09:26:49;;;;;;;5.55;4.07;;;0.00;99.90;;;;;;5042278;28;20090;-33
2023/12/17 09:29:16;;;;;;;5.18;4.38;;;0.00;99.90;;;;;;5046752;28;20061;-36
2023/12/17 09:31:41;;;;;;;7.53;5.15;;;0.10;99.90;;;;;;5045840;28;20063;-42
2023/12/17 09:34:07;;;;;;;7.18;5.25;;;0.10;99.90;;;;;;5044178;28;20061;-39
2023/12/17 09:36:33;;;;;;;7.03;4.32;;;0.20;99.90;;;;;;5050561;28;20037;-40
2023/12/17 09:38:58;;;;;;;8.13;5.05;;;0.20;99.90;;;;;;5047061;28;20039;-30
2023/12/17 09:41:25;;;;;;;7.57;4.78;;;0.30;99.90;;;;;;5041560;28;20131;-32
2023/12/17 09:43:51;;;;;;;9.75;5.63;;;0.40;99.90;;;;;;5046727;28;20079;-31
2023/12/17 09:46:18;;;;;;;8.10;5.72;;;0.40;99.90;;;;;;5046038;28;20036;-30
2023/12/17 09:48:43;;;;;;;11.93;7.78;;;0.40;99.90;;;;;;5046164;28;20431;-37
2023/12/17 09:51:11;;;;;;;9.20;5.97;;;0.50;99.90;;;;;;5041746;28;20029;-29
2023/12/17 09:53:37;;;;;;;6.45;5.30;;;0.50;99.90;;;;;;5041601;28;20460;-31
2023/12/17 09:56:03;;;;;;;9.07;5.10;;;0.50;99.90;;;;;;5041456;28;20021;-36
2023/12/17 09:58:29;;;;;;;6.45;5.32;;;0.60;99.90;;;;;;5045627;28;20416;-34
2023/12/17 10:00:55;;;;;;;5.65;4.78;;;0.60;99.90;;;;;;5039830;28;20034;-35
2023/12/17 10:03:21;;;;;;;5.40;4.90;;;0.70;99.90;;;;;;5015632;28;20037;-30
2023/12/17 10:05:53;;;;;;;7.75;5.80;;;0.70;99.90;;;;;;5020888;28;20083;-30
2023/12/17 10:08:20;;;;;;;7.60;5.35;;;0.80;99.90;;;;;;5019201;28;20104;-32
2023/12/17 10:10:46;;;;;;;5.05;4.43;;;0.80;99.90;;;;;;5025400;28;20053;-31
2023/12/17 10:13:26;;;;;;;7.70;5.45;;;0.90;99.90;;;;;;5021948;28;20422;-30
2023/12/17 10:15:53;;;;;;;7.47;5.07;;;0.90;99.90;;;;;;5017583;28;20095;-29
2023/12/17 10:18:20;;;;;;;6.47;4.75;;;1.00;99.90;;;;;;5020434;28;20033;-30
2023/12/17 10:20:46;;;;;;;7.00;5.70;;;1.00;99.90;;;;;;5023488;28;21226;-32
2023/12/17 10:23:13;;;;;;;6.60;5.70;;;1.10;99.90;;;;;;5022461;28;20033;-34
2023/12/17 10:25:39;;;;;;;6.63;5.05;;;1.10;99.90;;;;;;5024383;28;20065;-32
2023/12/17 10:28:07;;;;;;;3.58;3.28;;;1.20;99.90;;;;;;5022720;28;20523;-31
2023/12/17 10:30:33;;;;;;;6.32;4.65;;;1.30;99.90;;;;;;5021768;28;20711;-31
2023/12/17 10:33:05;;;;;;;3.38;3.00;;;1.30;99.90;;;;;;5043522;28;20029;-30
2023/12/17 10:35:31;;;;;;;6.25;4.88;;;1.40;99.90;;;;;;5042623;28;20033;-33
2023/12/17 10:38:01;;;;;;;3.78;3.45;;;1.40;99.90;;;;;;5042393;28;20480;-30
2023/12/17 10:40:28;;;;;;;8.25;6.07;;;1.50;99.90;;;;;;5040985;28;20036;-31
2023/12/17 10:42:56;;;;;;;5.88;4.70;;;1.60;99.90;;;;;;5041148;28;20490;-37
2023/12/17 10:45:23;;;;;;;4.73;4.27;;;1.70;99.90;;;;;;5038899;28;20025;-31
2023/12/17 10:47:56;;;;;;;5.32;4.00;;;1.70;99.90;;;;;;5040763;28;20620;-31
2023/12/17 10:50:24;;;;;;;5.95;4.75;;;1.70;99.90;;;;;;5038503;28;20026;-35
2023/12/17 10:52:50;;;;;;;4.73;4.20;;;1.70;99.90;;;;;;5038367;28;20013;-33
2023/12/17 10:55:17;;;;;;;4.78;3.80;;;1.80;99.90;;;;;;5040675;28;20032;-33
2023/12/17 10:58:03;;;;;;;6.25;4.50;;;1.90;99.90;;;;;;5035782;28;20040;-30
2023/12/17 11:00:31;;;;;;;3.35;3.15;;;1.90;99.90;;;;;;5038015;28;20052;-35
2023/12/17 11:02:59;;;;;;;;;;;2.00;99.90;;;;;;5038253;28;20472;-33
2023/12/17 11:05:25;;;;;;;3.08;2.85;;;2.00;99.90;;;;;;5039311;28;19925;-30
2023/12/17 11:07:50;;;;;;;54.72;26.27;;;2.10;99.90;;;;;;5035425;28;20306;-34
2023/12/17 11:10:17;;;;;;;140.60;55.10;;;2.10;99.90;;;;;;5038113;28;20432;-31
2023/12/17 11:12:46;;;;;;;169.77;61.90;;;2.30;99.90;;;;;;5039216;28;20830;-31
2023/12/17 11:15:12;;;;;;;112.68;72.90;;;2.40;99.90;;;;;;5044886;28;20040;-31
2023/12/17 11:17:39;;;;;;;55.20;33.22;;;2.40;99.90;;;;;;5043564;28;20361;-32
2023/12/17 11:20:05;;;;;;;16.50;10.98;;;2.50;99.90;;;;;;5043620;28;20025;-34
2023/12/17 11:22:38;;;;;;;11.13;7.93;;;2.50;99.90;;;;;;5043636;28;20037;-36
2023/12/17 11:25:08;;;;;;;8.52;4.75;;;2.50;99.90;;;;;;5044114;28;20723;-36
2023/12/17 11:27:34;;;;;;;11.38;8.85;;;2.50;99.90;;;;;;5043566;28;20108;-31
2023/12/17 11:30:00;;;;;;;10.80;8.40;;;2.60;99.90;;;;;;5045541;28;20113;-30
2023/12/17 11:32:27;;;;;;;8.77;6.68;;;2.70;99.90;;;;;;5045143;28;20484;-30
2023/12/17 11:34:54;;;;;;;7.28;5.30;;;2.80;99.90;;;;;;5047202;28;20671;-32
2023/12/17 11:37:21;;;;;;;8.35;4.65;;;2.90;99.90;;;;;;5044019;28;20022;-29
2023/12/17 11:39:51;;;;;;;5.60;4.07;;;2.90;99.90;;;;;;5045542;28;20036;-31
2023/12/17 11:42:18;;;;;;;5.95;5.00;;;3.00;99.90;;;;;;5043847;28;20033;-30
2023/12/17 11:44:44;;;;;;;8.68;6.40;;;2.90;99.90;;;;;;5044181;28;20032;-33
2023/12/17 11:47:14;;;;;;;5.60;4.72;;;3.00;99.90;;;;;;5042697;28;20501;-30
2023/12/17 11:49:40;;;;;;;6.45;3.85;;;3.00;99.90;;;;;;5045625;28;20066;-30
2023/12/17 11:52:10;;;;;;;5.88;4.50;;;3.00;99.90;;;;;;5045889;28;20456;-30
2023/12/17 11:54:36;;;;;;;6.60;4.55;;;3.20;99.90;;;;;;5042018;28;20025;-33
2023/12/17 11:57:02;;;;;;;5.78;4.50;;;3.20;99.90;;;;;;5046944;28;20297;-31
2023/12/17 11:59:31;;;;;;;34.97;15.32;;;3.20;99.90;;;;;;5044794;28;20086;-41
2023/12/17 12:01:57;;;;;;;8.38;5.65;;;3.20;99.90;;;;;;5043395;28;20037;-41
2023/12/17 12:04:23;;;;;;;13.70;8.48;;;3.20;99.90;;;;;;5042741;28;20049;-40
2023/12/17 12:06:55;;;;;;;6.63;4.43;;;3.30;99.90;;;;;;5044082;28;20021;-40
2023/12/17 12:09:21;;;;;;;3.78;3.40;;;3.40;99.90;;;;;;5042432;28;20499;-33
2023/12/17 12:11:47;;;;;;;5.13;4.00;;;3.40;99.90;;;;;;5042446;28;20104;-34
2023/12/17 12:14:13;;;;;;;4.63;4.15;;;3.50;99.90;;;;;;5043429;28;20053;-32
2023/12/17 12:16:43;;;;;;;5.03;3.53;;;3.50;99.90;;;;;;5044274;28;20071;-33
2023/12/17 12:19:09;;;;;;;5.93;4.50;;;3.60;99.90;;;;;;5043016;28;20041;-37
2023/12/17 12:21:35;;;;;;;7.72;4.38;;;3.70;99.90;;;;;;5043131;28;20029;-40
2023/12/17 12:24:01;;;;;;;5.20;4.30;;;3.70;99.90;;;;;;5043669;28;20029;-37
2023/12/17 12:26:27;;;;;;;4.18;3.72;;;3.70;99.90;;;;;;5045763;28;20021;-42
2023/12/17 12:28:57;;;;;;;5.93;4.45;;;3.70;99.90;;;;;;5045039;28;20119;-39
2023/12/17 12:31:23;;;;;;;5.50;4.03;;;3.80;99.90;;;;;;5043733;28;20048;-38
2023/12/17 12:33:56;;;;;;;5.47;4.68;;;3.80;99.90;;;;;;5044447;28;20024;-40
2023/12/17 12:36:22;;;;;;;5.07;4.00;;;3.80;99.90;;;;;;5043556;28;20043;-37
2023/12/17 12:39:05;;;;;;;4.28;3.88;;;3.80;99.90;;;;;;5045660;28;20029;-41
2023/12/17 12:41:31;;;;;;;6.18;4.55;;;4.00;99.90;;;;;;5042445;28;20041;-36
2023/12/17 12:43:58;;;;;;;8.50;5.22;;;4.00;99.90;;;;;;5043693;28;20033;-42